createdAt,value
2015-11-02T00:03:01.173Z,84
2015-11-02T00:06:01.446Z,84
2015-11-02T00:07:00.682Z,84
2015-11-02T00:07:59.904Z,84
2015-11-02T00:08:59.156Z,84
2015-11-02T00:09:58.377Z,84
2015-11-02T00:10:57.614Z,84
2015-11-02T00:11:59.882Z,84
2015-11-02T00:12:56.088Z,84
2015-11-02T00:14:54.918Z,84
2015-11-02T00:16:56.052Z,84
2015-11-02T00:17:55.333Z,84
2015-11-02T00:18:57.854Z,84
2015-11-02T00:21:56.581Z,84
2015-11-02T00:22:52.784Z,84
2015-11-02T00:24:51.820Z,84
2015-11-02T00:27:52.562Z,84
2015-11-02T00:29:54.568Z,84
2015-11-02T00:33:51.689Z,85
2015-11-02T00:34:50.082Z,85
2015-11-02T00:35:51.819Z,85
2015-11-02T00:37:51.309Z,85
2015-11-02T00:38:51.061Z,85
2015-11-02T00:40:50.567Z,85
2015-11-02T00:42:51.493Z,85
2015-11-02T00:45:54.377Z,85
2015-11-02T00:46:51.113Z,85
2015-11-02T00:47:50.882Z,85
2015-11-02T00:48:50.619Z,84
2015-11-02T00:49:50.357Z,84
2015-11-02T00:51:49.845Z,84
2015-11-02T00:52:49.614Z,84
2015-11-02T00:53:50.773Z,84
2015-11-02T00:55:50.934Z,84
2015-11-02T00:56:50.656Z,84
2015-11-02T00:57:50.425Z,84
2015-11-02T00:58:50.178Z,84
2015-11-02T00:59:49.945Z,84
2015-11-02T01:00:49.667Z,84
2015-11-02T01:01:49.420Z,84
2015-11-02T01:04:49.022Z,84
2015-11-02T01:05:50.462Z,85
2015-11-02T01:06:50.465Z,85
2015-11-02T01:07:50.498Z,84
2015-11-02T01:08:50.235Z,85
2015-11-02T01:09:50.254Z,84
2015-11-02T01:10:50.350Z,84
2015-11-02T01:16:54.335Z,85
2015-11-02T01:20:51.346Z,85
2015-11-02T01:21:51.365Z,85
2015-11-02T01:22:51.415Z,85
2015-11-02T01:23:51.963Z,85
2015-11-02T01:24:51.435Z,85
2015-11-02T01:25:53.187Z,85
2015-11-02T01:26:53.175Z,85
2015-11-02T01:27:53.209Z,85
2015-11-02T01:28:53.196Z,85
2015-11-02T01:30:53.842Z,85
2015-11-02T01:33:54.022Z,85
2015-11-02T01:35:56.074Z,85
2015-11-02T01:36:56.342Z,85
2015-11-02T01:37:56.611Z,85
2015-11-02T01:38:56.863Z,85
2015-11-02T01:40:57.416Z,85
2015-11-02T01:41:57.652Z,85
2015-11-02T01:42:57.936Z,85
2015-11-02T01:43:58.189Z,85
2015-11-02T01:44:58.520Z,85
2015-11-02T01:46:00.572Z,85
2015-11-02T01:47:00.527Z,85
2015-11-02T01:48:00.781Z,85
2015-11-02T01:49:01.049Z,85
2015-11-02T01:50:01.318Z,85
2015-11-02T01:51:04.617Z,85
2015-11-02T01:52:01.854Z,85
2015-11-02T01:53:02.122Z,85
2015-11-02T01:54:02.375Z,85
2015-11-02T01:55:02.706Z,85
2015-11-02T01:56:04.443Z,85
2015-11-02T01:57:07.726Z,85
2015-11-02T01:58:05.073Z,85
2015-11-02T02:00:05.514Z,85
2015-11-02T02:01:06.032Z,85
2015-11-02T02:02:06.300Z,85
2015-11-02T02:04:07.087Z,85
2015-11-02T02:05:07.667Z,85
2015-11-02T02:06:09.608Z,85
2015-11-02T02:07:09.922Z,85
2015-11-02T02:08:10.456Z,85
2015-11-02T02:09:10.975Z,85
2015-11-02T02:10:11.494Z,85
2015-11-02T02:11:12.058Z,85
2015-11-02T02:12:12.546Z,85
2015-11-02T02:13:13.080Z,85
2015-11-02T02:14:16.348Z,85
2015-11-02T02:15:13.913Z,85
2015-11-02T02:16:15.666Z,85
2015-11-02T02:17:16.185Z,85
2015-11-02T02:18:16.702Z,85
2015-11-02T02:19:17.220Z,85
2015-11-02T02:20:17.738Z,85
2015-11-02T02:21:18.257Z,85
2015-11-02T02:22:18.807Z,85
2015-11-02T02:24:19.828Z,85
2015-11-02T02:25:20.409Z,85
2015-11-02T02:26:22.146Z,85
2015-11-02T02:28:23.198Z,85
2015-11-02T02:29:26.732Z,85
2015-11-02T02:31:24.784Z,85
2015-11-02T02:34:26.871Z,86
2015-11-02T02:36:29.453Z,86
2015-11-02T02:38:31.256Z,86
2015-11-02T02:39:34.774Z,86
2015-11-02T02:40:32.542Z,86
2015-11-02T02:41:36.342Z,86
2015-11-02T02:42:34.439Z,86
2015-11-02T02:43:34.894Z,86
2015-11-02T02:44:35.663Z,86
2015-11-02T02:45:36.494Z,86
2015-11-02T02:46:38.247Z,86
2015-11-02T02:48:39.814Z,86
2015-11-02T02:49:40.598Z,86
2015-11-02T02:51:42.151Z,86
2015-11-02T02:52:45.934Z,86
2015-11-02T02:53:43.702Z,86
2015-11-02T02:55:45.333Z,86
2015-11-02T02:56:47.085Z,86
2015-11-02T02:57:50.870Z,86
2015-11-02T02:58:48.638Z,86
2015-11-02T02:59:49.407Z,86
2015-11-02T03:00:50.190Z,86
2015-11-02T03:01:54.286Z,86
2015-11-02T03:03:52.526Z,86
2015-11-02T03:04:53.310Z,86
2015-11-02T03:05:57.156Z,86
2015-11-02T03:06:55.894Z,86
2015-11-02T03:07:56.975Z,86
2015-11-02T03:08:57.461Z,86
2015-11-02T03:09:58.495Z,86
2015-11-02T03:10:59.014Z,86
2015-11-02T03:11:59.798Z,86
2015-11-02T03:13:00.582Z,86
2015-11-02T03:15:02.150Z,86
2015-11-02T03:17:05.048Z,86
2015-11-02T03:20:10.071Z,86
2015-11-02T03:22:08.640Z,86
2015-11-02T03:23:09.408Z,86
2015-11-02T03:24:10.192Z,86
2015-11-02T03:25:10.977Z,86
2015-11-02T03:26:11.838Z,86
2015-11-02T03:27:13.560Z,86
2015-11-02T03:28:14.343Z,86
2015-11-02T03:29:18.143Z,86
2015-11-02T03:30:15.895Z,86
2015-11-02T03:31:16.696Z,86
2015-11-02T03:33:18.232Z,86
2015-11-02T03:34:19.250Z,86
2015-11-02T03:35:19.800Z,86
2015-11-02T03:36:20.647Z,86
2015-11-02T03:37:22.399Z,86
2015-11-02T03:38:23.183Z,86
2015-11-02T03:39:23.951Z,86
2015-11-02T03:41:25.520Z,86
2015-11-02T03:43:27.337Z,86
2015-11-02T03:44:27.856Z,86
2015-11-02T03:45:28.655Z,86
2015-11-02T03:46:29.485Z,86
2015-11-02T03:47:31.238Z,86
2015-11-02T03:48:35.335Z,86
2015-11-02T03:50:36.621Z,86
2015-11-02T03:51:34.702Z,86
2015-11-02T03:52:38.174Z,86
2015-11-02T03:54:36.710Z,86
2015-11-02T03:55:37.698Z,86
2015-11-02T03:56:38.576Z,86
2015-11-02T03:57:40.344Z,86
2015-11-02T03:58:41.321Z,86
2015-11-02T03:59:42.164Z,86
2015-11-02T04:01:46.733Z,86
2015-11-02T04:02:44.736Z,86
2015-11-02T04:03:48.567Z,86
2015-11-02T04:04:46.554Z,86
2015-11-02T04:05:47.604Z,86
2015-11-02T04:06:51.715Z,86
2015-11-02T04:07:50.437Z,86
2015-11-02T04:08:51.470Z,86
2015-11-02T04:09:52.535Z,86
2015-11-02T04:10:53.554Z,86
2015-11-02T04:11:54.588Z,86
2015-11-02T04:13:56.937Z,86
2015-11-02T04:14:58.206Z,86
2015-11-02T04:16:02.490Z,86
2015-11-02T04:17:00.554Z,86
2015-11-02T04:18:02.370Z,86
2015-11-02T04:19:03.670Z,86
2015-11-02T04:20:07.956Z,86
2015-11-02T04:21:06.239Z,86
2015-11-02T04:22:07.586Z,86
2015-11-02T04:25:11.438Z,86
2015-11-02T04:27:14.069Z,86
2015-11-02T04:29:17.122Z,86
2015-11-02T04:30:18.405Z,86
2015-11-02T04:31:19.705Z,86
2015-11-02T04:32:21.005Z,86
2015-11-02T04:33:22.304Z,86
2015-11-02T04:34:23.587Z,86
2015-11-02T04:35:25.152Z,86
2015-11-02T04:36:26.202Z,86
2015-11-02T04:37:27.533Z,86
2015-11-02T04:38:29.285Z,86
2015-11-02T04:40:31.901Z,86
2015-11-02T04:41:33.169Z,86
2015-11-02T04:42:34.484Z,86
2015-11-02T04:43:35.768Z,86
2015-11-02T04:44:37.068Z,86
2015-11-02T04:45:38.368Z,86
2015-11-02T04:46:39.667Z,86
2015-11-02T04:53:51.295Z,86
2015-11-02T04:54:50.766Z,86
2015-11-02T04:55:52.175Z,86
2015-11-02T04:57:54.494Z,86
2015-11-02T04:58:59.277Z,86
2015-11-02T04:59:57.545Z,86
2015-11-02T05:00:58.861Z,86
2015-11-02T05:03:01.413Z,86
2015-11-02T05:04:02.728Z,86
2015-11-02T05:05:07.044Z,86
2015-11-02T05:06:05.031Z,86
2015-11-02T05:07:06.923Z,86
2015-11-02T05:08:07.976Z,86
2015-11-02T05:09:12.744Z,86
2015-11-02T05:11:13.749Z,86
2015-11-02T05:12:16.627Z,86
2015-11-02T05:13:14.912Z,86
2015-11-02T05:14:17.632Z,86
2015-11-02T05:15:17.510Z,86
2015-11-02T05:16:18.810Z,86
2015-11-02T05:17:20.423Z,86
2015-11-02T05:18:21.409Z,86
2015-11-02T05:19:23.521Z,86
2015-11-02T05:20:24.509Z,86
2015-11-02T05:21:26.012Z,86
2015-11-02T05:22:27.623Z,86
2015-11-02T05:23:28.656Z,86
2015-11-02T05:24:30.206Z,86
2015-11-02T05:25:31.506Z,86
2015-11-02T05:26:32.789Z,86
2015-11-02T05:27:34.105Z,86
2015-11-02T05:28:36.061Z,86
2015-11-02T05:29:37.470Z,86
2015-11-02T05:30:39.019Z,86
2015-11-02T05:31:40.772Z,86
2015-11-02T05:32:42.430Z,86
2015-11-02T05:34:45.452Z,86
2015-11-02T05:35:49.799Z,86
2015-11-02T05:36:48.349Z,86
2015-11-02T05:39:53.262Z,87
2015-11-02T05:40:55.077Z,87
2015-11-02T05:42:58.442Z,86
2015-11-02T05:43:59.992Z,87
2015-11-02T05:45:01.807Z,87
2015-11-02T05:46:03.590Z,87
2015-11-02T05:47:05.657Z,87
2015-11-02T05:48:07.237Z,87
2015-11-02T05:49:12.117Z,87
2015-11-02T05:51:12.669Z,87
2015-11-02T05:53:19.300Z,87
2015-11-02T05:55:19.899Z,87
2015-11-02T05:57:23.514Z,87
2015-11-02T05:59:27.203Z,87
2015-11-02T06:01:30.777Z,87
2015-11-02T06:02:35.591Z,87
2015-11-02T06:03:34.407Z,87
2015-11-02T06:06:40.134Z,87
2015-11-02T06:08:43.452Z,87
2015-11-02T06:09:48.360Z,87
2015-11-02T06:10:47.098Z,87
2015-11-02T06:11:48.882Z,87
2015-11-02T06:12:50.696Z,87
2015-11-02T06:14:54.670Z,87
2015-11-02T06:15:56.564Z,87
2015-11-02T06:16:58.426Z,87
2015-11-02T06:18:00.492Z,87
2015-11-02T06:19:02.556Z,87
2015-11-02T06:21:06.453Z,88
2015-11-02T06:24:13.417Z,88
2015-11-02T06:25:15.748Z,88
2015-11-02T06:26:18.375Z,88
2015-11-02T06:27:20.425Z,88
2015-11-02T06:28:22.724Z,88
2015-11-02T06:29:25.039Z,88
2015-11-02T06:30:23.557Z,88
2015-11-02T06:32:24.047Z,88
2015-11-02T06:33:25.566Z,88
2015-11-02T06:35:23.024Z,88
2015-11-02T06:36:18.730Z,88
2015-11-02T06:38:16.204Z,88
2015-11-02T06:39:14.926Z,88
2015-11-02T06:40:13.726Z,88
2015-11-02T06:41:15.479Z,88
2015-11-02T06:42:14.199Z,88
2015-11-02T06:44:11.971Z,88
2015-11-02T06:48:06.587Z,88
2015-11-02T06:49:05.340Z,88
2015-11-02T06:50:04.125Z,88
2015-11-02T06:51:06.142Z,88
2015-11-02T06:52:04.849Z,88
2015-11-02T06:54:02.089Z,88
2015-11-02T06:56:58.581Z,88
2015-11-02T06:57:57.006Z,88
2015-11-02T06:58:55.727Z,88
2015-11-02T06:59:54.089Z,88
2015-11-02T07:00:56.280Z,88
2015-11-02T07:01:55.267Z,88
2015-11-02T07:02:54.003Z,88
2015-11-02T07:03:52.491Z,88
2015-11-02T07:04:51.197Z,88
2015-11-02T07:05:49.934Z,88
2015-11-02T07:06:48.671Z,88
2015-11-02T07:07:50.424Z,88
2015-11-02T07:08:46.129Z,88
2015-11-02T07:09:44.929Z,88
2015-11-02T07:10:46.681Z,88
2015-11-02T07:11:45.419Z,88
2015-11-02T07:12:44.141Z,88
2015-11-02T07:13:45.908Z,88
2015-11-02T07:16:42.338Z,88
2015-11-02T07:17:38.076Z,89
2015-11-02T07:18:40.046Z,89
2015-11-02T07:19:36.346Z,89
2015-11-02T07:20:37.834Z,89
2015-11-02T07:21:36.820Z,89
2015-11-02T07:23:34.810Z,89
2015-11-02T07:24:33.798Z,89
2015-11-02T07:25:32.800Z,89
2015-11-02T07:27:31.274Z,89
2015-11-02T07:28:30.527Z,89
2015-11-02T07:29:30.139Z,89
2015-11-02T07:30:31.563Z,89
2015-11-02T07:31:30.816Z,89
2015-11-02T07:32:30.053Z,89
2015-11-02T07:33:29.305Z,89
2015-11-02T07:34:28.542Z,89
2015-11-02T07:35:27.795Z,89
2015-11-02T07:36:27.033Z,89
2015-11-02T07:37:29.285Z,89
2015-11-02T07:38:25.522Z,89
2015-11-02T07:39:24.805Z,89
2015-11-02T07:40:26.574Z,89
2015-11-02T07:42:25.049Z,89
2015-11-02T07:44:26.585Z,89
2015-11-02T07:45:25.822Z,90
2015-11-02T07:50:22.833Z,90
2015-11-02T07:53:21.607Z,90
2015-11-02T07:54:21.375Z,90
2015-11-02T07:55:22.534Z,90
2015-11-02T07:56:20.864Z,90
2015-11-02T07:57:20.617Z,90
2015-11-02T07:59:23.251Z,90
2015-11-02T08:00:21.923Z,90
2015-11-02T08:01:21.660Z,90
2015-11-02T08:02:21.445Z,90
2015-11-02T08:03:21.182Z,90
2015-11-02T08:04:20.934Z,90
2015-11-02T08:05:20.671Z,90
2015-11-02T08:06:20.456Z,90
2015-11-02T08:07:20.240Z,90
2015-11-02T08:08:20.179Z,90
2015-11-02T08:09:22.729Z,90
2015-11-02T08:10:21.497Z,91
2015-11-02T08:11:21.219Z,91
2015-11-02T08:12:20.972Z,91
2015-11-02T08:13:21.036Z,91
2015-11-02T08:15:19.948Z,90
2015-11-02T08:16:19.482Z,90
2015-11-02T08:17:18.406Z,90
2015-11-02T08:18:17.659Z,90
2015-11-02T08:19:16.708Z,89
2015-11-02T08:20:18.430Z,89
2015-11-02T08:21:17.167Z,89
2015-11-02T08:23:14.313Z,89
2015-11-02T08:24:16.644Z,89
2015-11-02T08:25:21.928Z,89
2015-11-02T08:26:20.994Z,88
2015-11-02T08:27:22.965Z,88
2015-11-02T08:28:24.330Z,88
2015-11-02T08:29:25.630Z,87
2015-11-02T08:30:27.366Z,87
2015-11-02T08:31:28.135Z,87
2015-11-02T08:32:29.184Z,87
2015-11-02T08:33:29.390Z,86
2015-11-02T08:34:29.626Z,86
2015-11-02T08:35:29.395Z,85
2015-11-02T08:36:28.851Z,85
2015-11-02T08:37:27.807Z,84
2015-11-02T08:38:26.497Z,83
2015-11-02T08:39:29.140Z,83
2015-11-02T08:42:34.914Z,83
2015-11-02T08:43:36.979Z,83
2015-11-02T08:44:38.732Z,83
2015-11-02T08:45:40.532Z,82
2015-11-02T08:48:43.805Z,81
2015-11-02T08:49:44.574Z,81
2015-11-02T08:50:46.091Z,81
2015-11-02T08:51:46.641Z,80
2015-11-02T08:52:46.800Z,81
2015-11-02T08:53:47.062Z,80
2015-11-02T08:54:47.006Z,80
2015-11-02T08:55:47.061Z,80
2015-11-02T08:56:46.679Z,80
2015-11-02T08:58:45.854Z,80
2015-11-02T08:59:45.572Z,79
2015-11-02T09:00:47.086Z,79
2015-11-02T09:01:46.304Z,79
2015-11-02T09:02:48.240Z,78
2015-11-02T09:03:43.928Z,78
2015-11-02T09:04:42.601Z,78
2015-11-02T09:05:41.055Z,78
2015-11-02T09:06:43.337Z,77
2015-11-02T09:07:45.370Z,77
2015-11-02T09:08:47.137Z,76
2015-11-02T09:09:48.703Z,76
2015-11-02T09:10:50.391Z,76
2015-11-02T09:11:51.941Z,76
2015-11-02T09:12:52.663Z,76
2015-11-02T09:13:56.696Z,76
2015-11-02T09:14:54.667Z,76
2015-11-02T09:15:55.685Z,76
2015-11-02T09:16:56.672Z,76
2015-11-02T09:17:57.955Z,75
2015-11-02T09:18:58.410Z,75
2015-11-02T09:19:59.179Z,75
2015-11-02T09:21:01.151Z,74
2015-11-02T09:22:01.138Z,74
2015-11-02T09:23:01.124Z,74
2015-11-02T09:24:00.846Z,74
2015-11-02T09:25:00.552Z,74
2015-11-02T09:26:00.243Z,74
2015-11-02T09:26:59.995Z,73
2015-11-02T09:27:59.467Z,73
2015-11-02T09:28:58.923Z,73
2015-11-02T09:29:58.426Z,73
2015-11-02T09:31:00.145Z,73
2015-11-02T09:31:59.617Z,72
2015-11-02T09:32:58.245Z,72
2015-11-02T09:34:56.406Z,72
2015-11-02T09:35:54.831Z,72
2015-11-02T09:37:52.228Z,72
2015-11-02T09:39:49.639Z,72
2015-11-02T09:40:51.345Z,72
2015-11-02T09:41:49.770Z,72
2015-11-02T09:42:48.210Z,71
2015-11-02T09:44:52.746Z,71
2015-11-02T09:45:55.031Z,71
2015-11-02T09:46:57.313Z,71
2015-11-02T09:47:59.316Z,71
2015-11-02T09:49:01.351Z,71
2015-11-02T09:50:03.416Z,71
2015-11-02T09:51:05.121Z,70
2015-11-02T09:52:06.874Z,70
2015-11-02T09:53:08.409Z,70
2015-11-02T09:54:09.630Z,70
2015-11-02T09:55:10.899Z,70
2015-11-02T09:57:13.138Z,69
2015-11-02T09:58:14.856Z,69
2015-11-02T09:59:14.858Z,69
2015-11-02T10:00:15.632Z,69
2015-11-02T10:01:17.338Z,69
2015-11-02T10:02:18.075Z,68
2015-11-02T10:03:18.546Z,68
2015-11-02T10:04:19.048Z,68
2015-11-02T10:05:19.504Z,68
2015-11-02T10:06:19.991Z,68
2015-11-02T10:07:20.462Z,68
2015-11-02T10:08:20.700Z,68
2015-11-02T10:09:20.906Z,68
2015-11-02T10:10:21.174Z,68
2015-11-02T10:11:22.879Z,68
2015-11-02T10:12:23.117Z,68
2015-11-02T10:13:23.323Z,68
2015-11-02T10:14:23.560Z,68
2015-11-02T10:15:23.781Z,68
2015-11-02T10:16:23.987Z,68
2015-11-02T10:17:24.209Z,68
2015-11-02T10:18:24.446Z,68
2015-11-02T10:19:24.667Z,68
2015-11-02T10:20:24.950Z,68
2015-11-02T10:21:26.641Z,67
2015-11-02T10:22:26.613Z,67
2015-11-02T10:23:26.568Z,67
2015-11-02T10:24:26.555Z,67
2015-11-02T10:25:26.496Z,67
2015-11-02T10:26:26.483Z,68
2015-11-02T10:27:26.438Z,67
2015-11-02T10:28:26.144Z,67
2015-11-02T10:29:25.850Z,67
2015-11-02T10:30:25.619Z,67
2015-11-02T10:31:27.308Z,67
2015-11-02T10:32:27.030Z,67
2015-11-02T10:33:26.736Z,67
2015-11-02T10:34:26.442Z,67
2015-11-02T10:35:26.163Z,67
2015-11-02T10:36:25.854Z,67
2015-11-02T10:37:25.574Z,67
2015-11-02T10:38:25.265Z,67
2015-11-02T10:39:24.986Z,67
2015-11-02T10:40:24.489Z,67
2015-11-02T10:41:26.195Z,67
2015-11-02T10:42:25.635Z,67
2015-11-02T10:43:25.090Z,67
2015-11-02T10:44:24.547Z,67
2015-11-02T10:45:24.003Z,67
2015-11-02T10:46:23.709Z,67
2015-11-02T10:47:23.430Z,67
2015-11-02T10:49:22.592Z,67
2015-11-02T10:51:24.066Z,67
2015-11-02T10:52:23.772Z,67
2015-11-02T10:54:22.933Z,67
2015-11-02T10:55:22.372Z,67
2015-11-02T10:56:21.829Z,67
2015-11-02T10:57:21.285Z,67
2015-11-02T10:58:20.740Z,67
2015-11-02T11:00:19.714Z,67
2015-11-02T11:01:21.404Z,67
2015-11-02T11:02:20.860Z,67
2015-11-02T11:03:20.315Z,67
2015-11-02T11:04:19.771Z,67
2015-11-02T11:06:18.667Z,67
2015-11-02T11:08:17.578Z,67
2015-11-02T11:09:17.035Z,67
2015-11-02T11:10:16.553Z,67
2015-11-02T11:11:18.259Z,67
2015-11-02T11:12:17.714Z,67
2015-11-02T11:13:17.170Z,67
2015-11-02T11:14:16.627Z,67
2015-11-02T11:15:16.083Z,67
2015-11-02T11:16:15.538Z,67
2015-11-02T11:17:14.994Z,67
2015-11-02T11:18:14.450Z,67
2015-11-02T11:19:13.906Z,67
2015-11-02T11:20:13.424Z,67
2015-11-02T11:21:15.129Z,67
2015-11-02T11:22:14.586Z,67
2015-11-02T11:23:14.041Z,67
2015-11-02T11:24:13.497Z,67
2015-11-02T11:25:12.953Z,67
2015-11-02T11:26:12.440Z,67
2015-11-02T11:27:12.114Z,67
2015-11-02T11:28:11.585Z,66
2015-11-02T11:29:11.042Z,66
2015-11-02T11:30:10.545Z,66
2015-11-02T11:31:12.250Z,66
2015-11-02T11:32:11.721Z,66
2015-11-02T11:33:11.162Z,67
2015-11-02T11:34:10.884Z,67
2015-11-02T11:35:10.590Z,67
2015-11-02T11:36:10.326Z,67
2015-11-02T11:37:10.016Z,67
2015-11-02T11:38:09.722Z,67
2015-11-02T11:39:09.444Z,67
2015-11-02T11:40:09.211Z,67
2015-11-02T11:41:10.934Z,67
2015-11-02T11:42:10.639Z,67
2015-11-02T11:43:10.344Z,67
2015-11-02T11:44:10.066Z,67
2015-11-02T11:45:09.772Z,67
2015-11-02T11:46:09.494Z,67
2015-11-02T11:47:09.230Z,67
2015-11-02T11:49:08.642Z,67
2015-11-02T11:50:08.411Z,67
2015-11-02T11:51:10.117Z,67
2015-11-02T11:53:09.543Z,67
2015-11-02T11:55:09.237Z,67
2015-11-02T11:56:09.208Z,67
2015-11-02T11:57:09.788Z,67
2015-11-02T11:58:09.760Z,67
2015-11-02T11:59:09.123Z,67
2015-11-02T12:00:09.156Z,67
2015-11-02T12:01:10.893Z,67
2015-11-02T12:03:11.055Z,68
2015-11-02T12:04:11.292Z,68
2015-11-02T12:05:11.529Z,68
2015-11-02T12:06:11.751Z,67
2015-11-02T12:07:11.707Z,67
2015-11-02T12:08:11.678Z,67
2015-11-02T12:09:11.650Z,68
2015-11-02T12:11:13.639Z,67
2015-11-02T12:12:13.657Z,67
2015-11-02T12:13:13.831Z,67
2015-11-02T12:15:13.806Z,68
2015-11-02T12:16:14.011Z,68
2015-11-02T12:17:14.249Z,68
2015-11-02T12:18:14.470Z,68
2015-11-02T12:19:14.723Z,68
2015-11-02T12:20:15.007Z,68
2015-11-02T12:21:16.963Z,68
2015-11-02T12:22:16.935Z,68
2015-11-02T12:23:20.172Z,68
2015-11-02T12:24:17.393Z,68
2015-11-02T12:25:17.614Z,68
2015-11-02T12:26:17.851Z,68
2015-11-02T12:27:21.088Z,68
2015-11-02T12:28:18.325Z,68
2015-11-02T12:29:18.796Z,68
2015-11-02T12:30:19.127Z,68
2015-11-02T12:31:20.537Z,68
2015-11-02T12:32:21.008Z,68
2015-11-02T12:33:20.979Z,68
2015-11-02T12:35:21.438Z,68
2015-11-02T12:36:21.659Z,68
2015-11-02T12:37:21.881Z,67
2015-11-02T12:38:21.868Z,68
2015-11-02T12:39:22.090Z,68
2015-11-02T12:40:22.373Z,67
2015-11-02T12:41:24.095Z,68
2015-11-02T12:42:24.317Z,68
2015-11-02T12:44:27.994Z,68
2015-11-02T12:45:25.261Z,68
2015-11-02T12:46:25.217Z,68
2015-11-02T12:47:25.455Z,68
2015-11-02T12:48:28.691Z,68
2015-11-02T12:49:26.225Z,68
2015-11-02T12:50:26.197Z,67
2015-11-02T12:51:27.903Z,67
2015-11-02T12:52:27.874Z,67
2015-11-02T12:53:27.846Z,67
2015-11-02T12:54:27.833Z,68
2015-11-02T12:55:28.039Z,68
2015-11-02T12:56:28.276Z,68
2015-11-02T12:57:28.513Z,68
2015-11-02T12:58:28.735Z,68
2015-11-02T12:59:29.221Z,68
2015-11-02T13:00:29.239Z,67
2015-11-02T13:01:30.960Z,67
2015-11-02T13:02:30.917Z,67
2015-11-02T13:03:31.513Z,68
2015-11-02T13:04:31.734Z,67
2015-11-02T13:06:31.084Z,67
2015-11-02T13:07:31.040Z,68
2015-11-02T13:08:31.292Z,68
2015-11-02T13:09:34.517Z,68
2015-11-02T13:10:31.782Z,68
2015-11-02T13:11:33.472Z,68
2015-11-02T13:13:33.934Z,67
2015-11-02T13:14:33.953Z,68
2015-11-02T13:15:34.750Z,68
2015-11-02T13:16:34.394Z,68
2015-11-02T13:17:34.600Z,68
2015-11-02T13:18:38.072Z,68
2015-11-02T13:19:35.074Z,68
2015-11-02T13:20:35.358Z,68
2015-11-02T13:21:37.064Z,68
2015-11-02T13:22:37.302Z,68
2015-11-02T13:23:37.522Z,68
2015-11-02T13:25:37.982Z,68
2015-11-02T13:26:38.219Z,68
2015-11-02T13:28:38.661Z,68
2015-11-02T13:30:39.183Z,68
2015-11-02T13:32:41.125Z,68
2015-11-02T13:33:41.284Z,68
2015-11-02T13:34:41.568Z,68
2015-11-02T13:35:41.804Z,68
2015-11-02T13:36:42.026Z,68
2015-11-02T13:39:43.019Z,68
2015-11-02T13:40:46.022Z,68
2015-11-02T13:41:44.728Z,68
2015-11-02T13:43:45.170Z,68
2015-11-02T13:44:45.408Z,68
2015-11-02T13:45:45.629Z,68
2015-11-02T13:46:45.867Z,68
2015-11-02T13:47:46.087Z,68
2015-11-02T13:48:49.308Z,68
2015-11-02T13:49:46.546Z,68
2015-11-02T13:50:46.814Z,68
2015-11-02T13:51:48.535Z,68
2015-11-02T13:53:48.994Z,68
2015-11-02T13:54:52.216Z,68
2015-11-02T13:55:49.437Z,68
2015-11-02T13:57:49.896Z,68
2015-11-02T13:58:50.117Z,68
2015-11-02T13:59:50.354Z,68
2015-11-02T14:00:51.154Z,68
2015-11-02T14:01:52.907Z,68
2015-11-02T14:03:53.052Z,68
2015-11-02T14:04:53.273Z,68
2015-11-02T14:05:56.526Z,68
2015-11-02T14:06:53.717Z,68
2015-11-02T14:08:54.706Z,68
2015-11-02T14:09:54.756Z,68
2015-11-02T14:10:55.978Z,68
2015-11-02T14:11:57.433Z,68
2015-11-02T14:12:58.248Z,68
2015-11-02T14:13:58.736Z,68
2015-11-02T14:15:58.866Z,68
2015-11-02T14:17:59.325Z,68
2015-11-02T14:19:02.562Z,68
2015-11-02T14:20:00.048Z,68
2015-11-02T14:21:00.583Z,68
2015-11-02T14:22:02.288Z,68
2015-11-02T14:25:03.749Z,68
2015-11-02T14:26:07.455Z,68
2015-11-02T14:27:04.458Z,68
2015-11-02T14:29:05.182Z,68
2015-11-02T14:30:05.404Z,68
2015-11-02T14:31:05.672Z,68
2015-11-02T14:32:07.409Z,68
2015-11-02T14:33:07.630Z,68
2015-11-02T14:34:07.852Z,68
2015-11-02T14:35:08.089Z,68
2015-11-02T14:36:08.357Z,68
2015-11-02T14:37:11.548Z,68
2015-11-02T14:38:08.768Z,68
2015-11-02T14:40:09.414Z,68
2015-11-02T14:41:09.854Z,68
2015-11-02T14:42:11.248Z,68
2015-11-02T14:43:14.751Z,68
2015-11-02T14:44:12.191Z,68
2015-11-02T14:45:12.678Z,68
2015-11-02T14:46:16.400Z,68
2015-11-02T14:47:13.653Z,68
2015-11-02T14:48:14.155Z,68
2015-11-02T14:49:14.626Z,68
2015-11-02T14:50:15.426Z,68
2015-11-02T14:52:17.369Z,68
2015-11-02T14:53:17.856Z,68
2015-11-02T14:54:18.344Z,68
2015-11-02T14:55:19.064Z,68
2015-11-02T14:56:19.332Z,68
2015-11-02T14:57:19.819Z,68
2015-11-02T14:58:20.298Z,69
2015-11-02T14:59:21.347Z,68
2015-11-02T15:00:21.522Z,69
2015-11-02T15:01:22.322Z,69
2015-11-02T15:02:24.028Z,69
2015-11-02T15:03:24.764Z,69
2015-11-02T15:04:25.455Z,69
2015-11-02T15:05:26.583Z,69
2015-11-02T15:06:27.007Z,69
2015-11-02T15:07:27.744Z,69
2015-11-02T15:08:28.481Z,69
2015-11-02T15:09:29.484Z,69
2015-11-02T15:11:31.536Z,69
2015-11-02T15:12:33.555Z,69
2015-11-02T15:13:34.261Z,69
2015-11-02T15:14:35.264Z,69
2015-11-02T15:15:36.249Z,69
2015-11-02T15:16:40.286Z,69
2015-11-02T15:17:38.258Z,69
2015-11-02T15:18:39.510Z,69
2015-11-02T15:19:40.779Z,69
2015-11-02T15:20:42.032Z,69
2015-11-02T15:21:43.347Z,69
2015-11-02T15:22:45.365Z,69
2015-11-02T15:23:46.321Z,69
2015-11-02T15:24:47.574Z,69
2015-11-02T15:25:48.827Z,69
2015-11-02T15:26:53.204Z,69
2015-11-02T15:27:51.285Z,70
2015-11-02T15:28:53.151Z,70
2015-11-02T15:29:54.358Z,70
2015-11-02T15:30:55.892Z,70
2015-11-02T15:31:57.456Z,70
2015-11-02T15:32:59.162Z,70
2015-11-02T15:34:00.697Z,70
2015-11-02T15:35:02.215Z,70
2015-11-02T15:37:05.736Z,70
2015-11-02T15:38:07.520Z,70
2015-11-02T15:39:09.289Z,70
2015-11-02T15:40:11.056Z,70
2015-11-02T15:42:14.906Z,70
2015-11-02T15:43:16.628Z,70
2015-11-02T15:45:20.727Z,70
2015-11-02T15:46:22.697Z,71
2015-11-02T15:47:24.982Z,71
2015-11-02T15:48:27.515Z,71
2015-11-02T15:49:29.799Z,71
2015-11-02T15:51:34.118Z,71
2015-11-02T15:52:36.463Z,71
2015-11-02T15:53:38.185Z,71
2015-11-02T15:55:38.066Z,72
2015-11-02T15:59:30.165Z,72
2015-11-02T16:00:28.543Z,72
2015-11-02T16:01:27.249Z,72
2015-11-02T16:02:26.002Z,72
2015-11-02T16:03:27.723Z,72
2015-11-02T16:04:26.695Z,72
2015-11-02T16:05:25.634Z,72
2015-11-02T16:06:24.590Z,72
2015-11-02T16:07:23.561Z,72
2015-11-02T16:08:22.518Z,73
2015-11-02T16:09:21.723Z,73
2015-11-02T16:10:20.945Z,73
2015-11-02T16:11:20.136Z,72
2015-11-02T16:12:19.403Z,72
2015-11-02T16:13:21.109Z,73
2015-11-02T16:14:23.597Z,73
2015-11-02T16:15:20.084Z,73
2015-11-02T16:16:19.540Z,73
2015-11-02T16:21:19.069Z,73
2015-11-02T16:24:18.890Z,74
2015-11-02T16:25:19.111Z,74
2015-11-02T16:26:18.864Z,74
2015-11-02T16:27:18.820Z,74
2015-11-02T16:28:18.822Z,74
2015-11-02T16:29:19.060Z,74
2015-11-02T16:30:19.281Z,74
2015-11-02T16:32:20.161Z,74
2015-11-02T16:35:25.311Z,74
2015-11-02T16:36:22.782Z,74
2015-11-02T16:37:26.316Z,74
2015-11-02T16:40:25.028Z,75
2015-11-02T16:41:25.780Z,75
2015-11-02T16:42:29.611Z,75
2015-11-02T16:43:31.332Z,75
2015-11-02T16:44:32.085Z,75
2015-11-02T16:45:29.822Z,75
2015-11-02T16:46:31.138Z,75
2015-11-02T16:47:31.828Z,75
2015-11-02T16:49:33.880Z,76
2015-11-02T16:50:35.133Z,76
2015-11-02T16:51:36.401Z,76
2015-11-02T16:52:37.732Z,76
2015-11-02T16:53:39.719Z,76
2015-11-02T16:54:40.972Z,76
2015-11-02T16:55:41.991Z,76
2015-11-02T16:56:43.274Z,76
2015-11-02T16:58:46.312Z,76
2015-11-02T16:59:47.846Z,76
2015-11-02T17:00:49.614Z,76
2015-11-02T17:02:53.245Z,76
2015-11-02T17:03:54.966Z,76
2015-11-02T17:04:57.048Z,76
2015-11-02T17:05:58.535Z,77
2015-11-02T17:07:00.788Z,77
2015-11-02T17:08:02.930Z,77
2015-11-02T17:09:04.964Z,77
2015-11-02T17:10:06.685Z,77
2015-11-02T17:11:08.736Z,77
2015-11-02T17:12:10.770Z,77
2015-11-02T17:13:13.132Z,77
2015-11-02T17:14:14.853Z,77
2015-11-02T17:15:17.153Z,77
2015-11-02T17:16:19.453Z,77
2015-11-02T17:17:24.768Z,77
2015-11-02T17:18:27.068Z,77
2015-11-02T17:19:26.336Z,77
2015-11-02T17:21:27.373Z,77
2015-11-02T17:22:28.547Z,77
2015-11-02T17:24:25.771Z,77
2015-11-02T17:25:24.415Z,77
2015-11-02T17:27:21.702Z,78
2015-11-02T17:30:17.504Z,78
2015-11-02T17:31:16.210Z,78
2015-11-02T17:32:15.196Z,78
2015-11-02T17:34:15.421Z,78
2015-11-02T17:35:14.143Z,78